createdAt,value
2019-03-26T00:01:59.474Z,3.70
2019-03-26T00:04:06.309Z,3.60
2019-03-26T00:06:12.562Z,3.60
2019-03-26T00:08:19.709Z,3.50
2019-03-26T00:10:25.769Z,3.60
2019-03-26T00:12:31.818Z,3.60
2019-03-26T00:14:37.815Z,3.60
2019-03-26T00:16:43.768Z,3.60
2019-03-26T00:18:49.769Z,3.50
2019-03-26T00:20:55.826Z,3.50
2019-03-26T00:23:01.887Z,3.50
2019-03-26T00:25:07.955Z,3.50
2019-03-26T00:27:13.932Z,3.50
2019-03-26T00:29:20.002Z,3.50
2019-03-26T00:31:26.006Z,3.50
2019-03-26T00:33:36.562Z,3.40
2019-03-26T00:35:39.652Z,3.40
2019-03-26T00:37:45.853Z,3.40
2019-03-26T00:39:51.852Z,3.50
2019-03-26T00:41:58.322Z,3.40
2019-03-26T00:44:04.594Z,3.50
2019-03-26T00:46:10.546Z,3.40
2019-03-26T00:48:16.542Z,3.40
2019-03-26T00:50:22.610Z,3.50
2019-03-26T00:52:28.558Z,3.50
2019-03-26T00:54:34.614Z,3.40
2019-03-26T00:56:40.564Z,3.40
2019-03-26T00:58:49.539Z,3.40
2019-03-26T01:00:55.604Z,3.40
2019-03-26T01:03:01.724Z,3.40
2019-03-26T01:05:08.935Z,3.30
2019-03-26T01:07:14.911Z,3.20
2019-03-26T01:09:20.910Z,3.20
2019-03-26T01:11:26.929Z,3.10
2019-03-26T01:13:32.896Z,3.20
2019-03-26T01:15:39.041Z,3.20
2019-03-26T01:17:47.644Z,3.10
2019-03-26T01:19:53.942Z,3.10
2019-03-26T01:22:00.025Z,3.00
2019-03-26T01:24:06.238Z,3.00
2019-03-26T01:26:12.481Z,2.80
2019-03-26T01:28:21.216Z,2.90
2019-03-26T01:30:27.787Z,3.00
2019-03-26T01:32:33.986Z,2.90
2019-03-26T01:34:45.956Z,2.80
2019-03-26T01:36:50.027Z,2.80
2019-03-26T01:38:56.111Z,2.80
2019-03-26T01:41:02.106Z,2.70
2019-03-26T01:43:08.142Z,2.60
2019-03-26T01:45:14.267Z,2.50
2019-03-26T01:47:20.327Z,2.50
2019-03-26T01:49:26.406Z,2.50
2019-03-26T01:51:32.464Z,2.60
2019-03-26T01:53:38.533Z,2.80
2019-03-26T01:55:44.544Z,2.80
2019-03-26T01:57:50.542Z,2.70
2019-03-26T01:59:56.506Z,2.70
2019-03-26T02:02:02.470Z,2.60
2019-03-26T02:04:08.431Z,2.60
2019-03-26T02:06:14.422Z,2.50
2019-03-26T02:08:20.508Z,2.50
2019-03-26T02:10:26.538Z,2.50
2019-03-26T02:12:32.559Z,2.50
2019-03-26T02:14:38.536Z,2.50
2019-03-26T02:16:44.567Z,2.50
2019-03-26T02:18:50.584Z,2.50
2019-03-26T02:20:56.598Z,2.50
2019-03-26T02:23:02.570Z,2.50
2019-03-26T02:25:08.610Z,2.40
2019-03-26T02:27:14.607Z,2.40
2019-03-26T02:29:20.591Z,2.30
2019-03-26T02:31:26.580Z,2.30
2019-03-26T02:33:32.616Z,2.10
2019-03-26T02:35:38.659Z,1.90
2019-03-26T02:37:44.621Z,1.70
2019-03-26T02:39:50.637Z,1.50
2019-03-26T02:41:56.604Z,1.20
2019-03-26T02:44:02.680Z,1.20
2019-03-26T02:46:08.713Z,1.10
2019-03-26T02:48:14.663Z,1.00
2019-03-26T02:50:23.423Z,0.90
2019-03-26T02:52:29.362Z,0.80
2019-03-26T02:54:35.330Z,0.70
2019-03-26T02:56:41.380Z,0.90
2019-03-26T02:58:47.442Z,0.90
2019-03-26T03:00:53.511Z,0.70
2019-03-26T03:02:59.477Z,0.60
2019-03-26T03:05:05.639Z,0.60
2019-03-26T03:07:11.643Z,0.40
2019-03-26T03:09:17.646Z,0.30
2019-03-26T03:11:23.609Z,0.30
2019-03-26T03:13:29.600Z,0.30
2019-03-26T03:15:35.546Z,0.30
2019-03-26T03:17:41.775Z,0.30
2019-03-26T03:19:47.913Z,0.30
2019-03-26T03:21:53.950Z,0.20
2019-03-26T03:23:59.976Z,0.10
2019-03-26T03:26:05.938Z,0.10
2019-03-26T03:28:11.906Z,0.00
2019-03-26T03:30:20.595Z,-0.10
2019-03-26T03:32:26.592Z,-0.10
2019-03-26T03:34:32.654Z,-0.20
2019-03-26T03:36:38.630Z,-0.20
2019-03-26T03:38:44.671Z,-0.20
2019-03-26T03:40:52.302Z,-0.30
2019-03-26T03:42:58.339Z,-0.30
2019-03-26T03:45:04.746Z,-0.30
2019-03-26T03:47:13.928Z,-0.40
2019-03-26T03:49:22.722Z,-0.40
2019-03-26T03:51:30.187Z,-0.50
2019-03-26T03:53:36.562Z,-0.40
2019-03-26T03:55:42.746Z,-0.40
2019-03-26T03:57:52.982Z,-0.50
2019-03-26T04:00:02.151Z,-0.60
2019-03-26T04:02:08.215Z,-0.80
2019-03-26T04:04:14.271Z,-0.80
2019-03-26T04:06:20.237Z,-0.90
2019-03-26T04:08:26.265Z,-0.90
2019-03-26T04:10:32.299Z,-0.90
2019-03-26T04:12:38.392Z,-0.90
2019-03-26T04:14:44.444Z,-1.20
2019-03-26T04:16:50.775Z,-1.20
2019-03-26T04:18:57.151Z,-1.20
2019-03-26T04:21:03.201Z,-1.10
2019-03-26T04:23:09.626Z,-1.10
2019-03-26T04:25:15.867Z,-1.10
2019-03-26T04:27:21.835Z,-1.20
2019-03-26T04:29:27.844Z,-1.20
2019-03-26T04:31:33.880Z,-1.30
2019-03-26T04:33:39.876Z,-1.30
2019-03-26T04:35:45.946Z,-1.20
2019-03-26T04:37:52.020Z,-1.20
2019-03-26T04:39:59.289Z,-1.10
2019-03-26T04:42:05.267Z,-1.00
2019-03-26T04:44:11.284Z,-0.90
2019-03-26T04:46:17.343Z,-1.00
2019-03-26T04:48:23.313Z,-1.10
2019-03-26T04:50:29.323Z,-1.20
2019-03-26T04:52:35.384Z,-1.10
2019-03-26T04:54:41.426Z,-1.20
2019-03-26T04:56:47.410Z,-1.20
2019-03-26T04:58:53.439Z,-1.20
2019-03-26T05:00:59.646Z,-1.20
2019-03-26T05:03:05.652Z,-1.30
2019-03-26T05:05:12.478Z,-1.30
2019-03-26T05:07:18.743Z,-1.40
2019-03-26T05:09:24.762Z,-1.40
2019-03-26T05:11:30.732Z,-1.50
2019-03-26T05:13:36.770Z,-1.40
2019-03-26T05:15:42.759Z,-1.40
2019-03-26T05:17:48.775Z,-1.50
2019-03-26T05:19:54.810Z,-1.60
2019-03-26T05:22:00.789Z,-1.70
2019-03-26T05:24:06.942Z,-1.80
2019-03-26T05:26:12.909Z,-1.80
2019-03-26T05:28:18.934Z,-1.60
2019-03-26T05:30:24.906Z,-1.30
2019-03-26T05:32:31.311Z,-1.10
2019-03-26T05:34:37.287Z,-1.10
2019-03-26T05:36:51.570Z,-1.00
2019-03-26T05:38:54.359Z,-1.00
2019-03-26T05:41:00.357Z,-0.80
2019-03-26T05:43:06.459Z,-0.80
2019-03-26T05:45:13.552Z,-0.70
2019-03-26T05:47:19.624Z,-0.80
2019-03-26T05:49:27.469Z,-0.70
2019-03-26T05:51:33.517Z,-0.10
2019-03-26T05:53:40.599Z,0.90
2019-03-26T05:55:46.598Z,2.00
2019-03-26T05:57:54.091Z,3.20
2019-03-26T06:00:00.101Z,3.60
2019-03-26T06:02:13.809Z,4.40
2019-03-26T06:04:14.178Z,4.30
2019-03-26T06:06:20.265Z,4.90
2019-03-26T06:08:26.227Z,5.30
2019-03-26T06:10:32.210Z,5.60
2019-03-26T06:12:38.210Z,6.00
2019-03-26T06:14:44.154Z,6.30
2019-03-26T06:16:50.132Z,7.00
2019-03-26T06:18:56.242Z,7.20
2019-03-26T06:21:02.287Z,7.50
2019-03-26T06:23:08.274Z,8.60
2019-03-26T06:25:14.502Z,8.90
2019-03-26T06:27:23.767Z,7.70
2019-03-26T06:29:29.758Z,8.00
2019-03-26T06:31:35.762Z,8.00
2019-03-26T06:33:41.716Z,8.20
2019-03-26T06:35:47.750Z,7.70
2019-03-26T06:37:53.721Z,7.30
2019-03-26T06:40:00.044Z,7.20
2019-03-26T06:42:06.119Z,7.80
2019-03-26T06:44:12.483Z,8.90
2019-03-26T06:46:18.544Z,9.40
2019-03-26T06:48:27.020Z,10.30
2019-03-26T06:50:32.730Z,9.60
2019-03-26T06:52:38.599Z,9.30
2019-03-26T06:54:44.341Z,9.80
2019-03-26T06:56:51.185Z,10.90
2019-03-26T06:58:57.471Z,10.70
2019-03-26T07:01:03.447Z,11.60
2019-03-26T07:03:09.162Z,11.50
2019-03-26T07:05:17.670Z,11.20
2019-03-26T07:07:31.520Z,12.40
2019-03-26T07:09:32.074Z,13.30
2019-03-26T07:11:38.200Z,13.20
2019-03-26T07:13:44.082Z,13.40
2019-03-26T07:15:51.947Z,12.10
2019-03-26T07:17:57.699Z,12.70
2019-03-26T07:20:03.480Z,12.70
2019-03-26T07:22:09.231Z,12.50
2019-03-26T07:24:14.946Z,14.20
2019-03-26T07:26:20.746Z,14.50
2019-03-26T07:28:26.575Z,14.10
2019-03-26T07:30:42.446Z,13.60
2019-03-26T07:32:48.238Z,13.70
2019-03-26T07:34:53.990Z,14.10
2019-03-26T07:36:59.727Z,15.00
2019-03-26T07:39:05.794Z,14.50
2019-03-26T07:41:11.551Z,15.00
2019-03-26T07:43:17.327Z,12.90
2019-03-26T07:45:23.039Z,14.00
2019-03-26T07:47:28.799Z,13.80
2019-03-26T07:49:35.922Z,14.40
2019-03-26T07:51:41.694Z,12.80
2019-03-26T07:53:48.402Z,11.80
2019-03-26T07:55:54.279Z,12.20
2019-03-26T07:57:59.994Z,13.80
2019-03-26T08:00:07.503Z,12.80
2019-03-26T08:02:13.295Z,12.80
2019-03-26T08:04:19.137Z,13.30
2019-03-26T08:06:24.914Z,13.60
2019-03-26T08:08:30.642Z,13.20
2019-03-26T08:10:36.307Z,14.40
2019-03-26T08:12:45.162Z,14.00
2019-03-26T08:14:50.862Z,12.80
2019-03-26T08:16:56.722Z,13.40
2019-03-26T08:19:02.591Z,13.80
2019-03-26T08:21:08.375Z,15.10
2019-03-26T08:23:14.114Z,14.40
2019-03-26T08:25:19.839Z,14.50
2019-03-26T08:27:25.551Z,14.10
2019-03-26T08:29:31.330Z,14.60
2019-03-26T08:31:37.103Z,15.50
2019-03-26T08:33:44.165Z,15.40
2019-03-26T08:35:49.903Z,16.00
2019-03-26T08:37:55.654Z,14.40
2019-03-26T08:40:01.403Z,15.00
2019-03-26T08:42:07.137Z,15.00
2019-03-26T08:44:12.834Z,15.60
2019-03-26T08:46:18.624Z,16.70
2019-03-26T08:48:24.409Z,15.50
2019-03-26T08:50:30.177Z,15.30
2019-03-26T08:52:35.978Z,13.90
2019-03-26T08:54:41.775Z,15.10
2019-03-26T08:56:49.526Z,15.70
2019-03-26T08:58:55.326Z,14.60
2019-03-26T09:01:01.058Z,16.10
2019-03-26T09:03:06.766Z,15.30
2019-03-26T09:05:12.474Z,15.60
2019-03-26T09:07:18.167Z,15.60
2019-03-26T09:09:23.963Z,16.00
2019-03-26T09:11:29.748Z,16.30
2019-03-26T09:13:35.516Z,17.80
2019-03-26T09:15:41.231Z,16.90
2019-03-26T09:17:47.047Z,16.80
2019-03-26T09:19:54.542Z,16.70
2019-03-26T09:22:00.279Z,16.00
2019-03-26T09:24:05.999Z,15.90
2019-03-26T09:26:14.101Z,17.20
2019-03-26T09:28:19.873Z,16.80
2019-03-26T09:30:25.631Z,15.80
2019-03-26T09:32:31.378Z,16.10
2019-03-26T09:34:37.158Z,16.60
2019-03-26T09:36:42.945Z,15.50
2019-03-26T09:38:48.639Z,15.30
2019-03-26T09:40:54.350Z,15.30
2019-03-26T09:43:02.930Z,17.00
2019-03-26T09:45:09.367Z,16.50
2019-03-26T09:47:16.514Z,16.70
2019-03-26T09:49:22.602Z,16.70
2019-03-26T09:51:28.382Z,16.90
2019-03-26T09:53:34.046Z,15.80
2019-03-26T09:55:39.822Z,17.20
2019-03-26T09:57:45.552Z,18.90
2019-03-26T09:59:51.325Z,17.30
2019-03-26T10:02:03.355Z,16.40
2019-03-26T10:04:08.958Z,18.30
2019-03-26T10:06:24.244Z,16.70
2019-03-26T10:08:51.446Z,15.50
2019-03-26T10:11:29.026Z,16.20
2019-03-26T10:13:36.421Z,17.40
2019-03-26T10:15:47.927Z,19.90
2019-03-26T10:17:55.711Z,18.00
2019-03-26T10:20:07.206Z,18.00
2019-03-26T10:22:14.324Z,17.00
2019-03-26T10:24:20.099Z,19.20
2019-03-26T10:26:25.871Z,18.70
2019-03-26T10:28:31.642Z,19.40
2019-03-26T10:30:38.893Z,19.50
2019-03-26T10:32:44.734Z,18.50
2019-03-26T10:34:50.450Z,17.60
2019-03-26T10:36:56.143Z,16.90
2019-03-26T10:39:05.842Z,17.60
2019-03-26T10:41:12.315Z,17.50
2019-03-26T10:43:18.018Z,17.30
2019-03-26T10:45:23.796Z,17.60
2019-03-26T10:47:29.557Z,16.70
2019-03-26T10:49:35.403Z,16.80
2019-03-26T10:51:41.181Z,17.00
2019-03-26T10:53:46.912Z,17.10
2019-03-26T10:55:53.911Z,18.90
2019-03-26T10:58:01.740Z,18.70
2019-03-26T11:00:09.114Z,17.10
2019-03-26T11:02:17.481Z,18.70
2019-03-26T11:04:23.184Z,19.20
2019-03-26T11:06:32.319Z,20.10
2019-03-26T11:08:39.012Z,19.70
2019-03-26T11:10:45.731Z,19.00
2019-03-26T11:12:51.474Z,17.50
2019-03-26T11:14:57.322Z,17.50
2019-03-26T11:17:05.086Z,15.40
2019-03-26T11:19:10.796Z,16.10
2019-03-26T11:21:18.744Z,17.10
2019-03-26T11:23:24.567Z,18.50
2019-03-26T11:25:30.303Z,16.30
2019-03-26T11:27:36.020Z,16.50
2019-03-26T11:29:41.795Z,17.30
2019-03-26T11:31:48.469Z,16.90
2019-03-26T11:33:57.871Z,18.20
2019-03-26T11:36:03.634Z,19.10
2019-03-26T11:38:10.650Z,19.30
2019-03-26T11:40:17.016Z,18.80
2019-03-26T11:42:22.949Z,18.60
2019-03-26T11:44:28.674Z,18.00
2019-03-26T11:46:34.400Z,18.70
2019-03-26T11:48:40.110Z,18.20
2019-03-26T11:50:45.838Z,17.70
2019-03-26T11:52:51.526Z,17.40
2019-03-26T11:54:57.211Z,17.70
2019-03-26T11:57:02.943Z,17.30
2019-03-26T11:59:08.627Z,17.70
2019-03-26T12:01:14.418Z,17.80
2019-03-26T12:03:20.149Z,18.60
2019-03-26T12:05:27.930Z,19.00
2019-03-26T12:07:33.803Z,19.70
2019-03-26T12:09:46.168Z,19.40
2019-03-26T12:11:48.240Z,17.20
2019-03-26T12:13:54.031Z,19.00
2019-03-26T12:15:59.865Z,17.90
2019-03-26T12:18:05.618Z,18.30
2019-03-26T12:20:11.631Z,18.50
2019-03-26T12:22:17.351Z,18.10
2019-03-26T12:24:24.849Z,17.10
2019-03-26T12:26:30.626Z,16.70
2019-03-26T12:28:36.360Z,18.20
2019-03-26T12:30:42.156Z,19.20
2019-03-26T12:32:47.830Z,17.50
2019-03-26T12:34:53.650Z,19.30
2019-03-26T12:36:59.443Z,19.00
2019-03-26T12:39:07.406Z,18.30
2019-03-26T12:41:13.091Z,17.50
2019-03-26T12:43:18.863Z,16.90
2019-03-26T12:45:24.973Z,17.20
2019-03-26T12:47:30.703Z,18.10
2019-03-26T12:49:37.859Z,17.40
2019-03-26T12:51:43.606Z,17.60
2019-03-26T12:53:49.376Z,18.10
2019-03-26T12:55:55.577Z,17.90
2019-03-26T12:58:01.358Z,16.30
2019-03-26T13:00:09.182Z,17.70
2019-03-26T13:02:14.887Z,17.20
2019-03-26T13:04:20.631Z,17.20
2019-03-26T13:06:26.330Z,16.20
2019-03-26T13:08:32.134Z,17.10
2019-03-26T13:10:38.599Z,17.20
2019-03-26T13:12:44.298Z,16.70
2019-03-26T13:14:49.994Z,17.80
2019-03-26T13:16:55.691Z,17.60
2019-03-26T13:19:01.461Z,18.00
2019-03-26T13:21:07.194Z,17.40
2019-03-26T13:23:12.979Z,16.50
2019-03-26T13:25:18.682Z,17.00
2019-03-26T13:27:24.514Z,16.50
2019-03-26T13:29:30.258Z,16.70
2019-03-26T13:31:35.990Z,17.20
2019-03-26T13:33:43.614Z,16.90
2019-03-26T13:35:49.047Z,17.00
2019-03-26T13:37:54.787Z,15.60
2019-03-26T13:40:00.549Z,16.50
2019-03-26T13:42:06.319Z,16.80
2019-03-26T13:44:12.002Z,17.10
2019-03-26T13:46:17.686Z,17.60
2019-03-26T13:48:23.367Z,16.90
2019-03-26T13:50:29.182Z,16.80
2019-03-26T13:52:35.020Z,15.80
2019-03-26T13:54:40.970Z,15.80
2019-03-26T13:56:49.550Z,16.20
2019-03-26T13:58:55.614Z,16.00
2019-03-26T14:01:01.643Z,16.20
2019-03-26T14:03:07.678Z,15.60
2019-03-26T14:05:26.620Z,15.60
2019-03-26T14:07:32.651Z,16.40
2019-03-26T14:09:39.002Z,16.90
2019-03-26T14:11:46.376Z,15.20
2019-03-26T14:13:54.223Z,15.10
2019-03-26T14:16:00.226Z,15.40
2019-03-26T14:18:12.369Z,14.20
2019-03-26T14:20:27.780Z,14.60
2019-03-26T14:22:39.935Z,13.90
2019-03-26T14:24:45.939Z,13.20
2019-03-26T14:26:51.942Z,11.80
2019-03-26T14:28:57.915Z,11.10
2019-03-26T14:31:03.898Z,10.80
2019-03-26T14:33:10.108Z,11.30
2019-03-26T14:35:16.242Z,10.70
2019-03-26T14:37:22.290Z,10.90
2019-03-26T14:39:28.303Z,10.90
2019-03-26T14:41:34.259Z,10.60
2019-03-26T14:43:40.310Z,10.50
2019-03-26T14:45:46.393Z,10.10
2019-03-26T14:47:52.426Z,10.10
2019-03-26T14:49:59.727Z,10.10
2019-03-26T14:52:05.722Z,10.00
2019-03-26T14:54:11.720Z,10.00
2019-03-26T14:56:19.434Z,10.00
2019-03-26T14:58:25.411Z,9.90
2019-03-26T15:00:31.443Z,9.80
2019-03-26T15:02:37.423Z,9.40
2019-03-26T15:04:43.423Z,9.10
2019-03-26T15:06:49.469Z,9.10
2019-03-26T15:08:55.435Z,9.20
2019-03-26T15:11:07.979Z,9.30
2019-03-26T15:13:09.086Z,9.20
2019-03-26T15:15:15.240Z,9.10
2019-03-26T15:17:21.309Z,9.20
2019-03-26T15:19:27.344Z,9.10
2019-03-26T15:21:33.392Z,9.00
2019-03-26T15:23:39.369Z,9.00
2019-03-26T15:25:45.322Z,8.80
2019-03-26T15:27:51.298Z,8.70
2019-03-26T15:29:57.275Z,8.70
2019-03-26T15:32:03.298Z,8.70
2019-03-26T15:34:11.751Z,8.70
2019-03-26T15:36:17.810Z,8.60
2019-03-26T15:38:23.765Z,8.50
2019-03-26T15:40:29.790Z,8.60
2019-03-26T15:42:35.801Z,8.60
2019-03-26T15:44:41.835Z,8.60
2019-03-26T15:46:47.811Z,8.50
2019-03-26T15:48:53.791Z,8.60
2019-03-26T15:50:59.794Z,8.50
2019-03-26T15:53:05.763Z,8.40
2019-03-26T15:55:12.113Z,8.30
2019-03-26T15:57:18.226Z,8.20
2019-03-26T15:59:24.184Z,8.20
2019-03-26T16:01:30.155Z,8.00
2019-03-26T16:03:36.147Z,7.90
2019-03-26T16:05:42.138Z,7.80
2019-03-26T16:07:48.144Z,7.60
2019-03-26T16:09:54.178Z,7.50
2019-03-26T16:12:00.201Z,7.30
2019-03-26T16:14:06.247Z,7.30
2019-03-26T16:16:12.288Z,7.10
2019-03-26T16:18:21.171Z,7.10
2019-03-26T16:20:27.159Z,7.00
2019-03-26T16:22:33.150Z,7.00
2019-03-26T16:24:39.670Z,6.90
2019-03-26T16:26:45.696Z,6.90
2019-03-26T16:28:51.679Z,6.90
2019-03-26T16:30:57.760Z,6.80
2019-03-26T16:33:03.783Z,6.70
2019-03-26T16:35:09.826Z,6.70
2019-03-26T16:37:15.798Z,6.60
2019-03-26T16:39:24.595Z,6.70
2019-03-26T16:41:30.583Z,6.60
2019-03-26T16:43:36.618Z,6.60
2019-03-26T16:45:42.667Z,6.60
2019-03-26T16:47:48.748Z,6.60
2019-03-26T16:49:54.804Z,6.60
2019-03-26T16:52:00.935Z,6.50
2019-03-26T16:54:06.942Z,6.30
2019-03-26T16:56:12.929Z,6.40
2019-03-26T16:58:18.987Z,6.20
2019-03-26T17:00:33.178Z,6.30
2019-03-26T17:02:39.122Z,6.30
2019-03-26T17:04:46.871Z,6.10
2019-03-26T17:06:52.862Z,5.90
2019-03-26T17:08:58.841Z,5.90
2019-03-26T17:11:04.871Z,5.80
2019-03-26T17:13:10.895Z,5.80
2019-03-26T17:15:18.710Z,5.90
2019-03-26T17:17:24.738Z,5.90
2019-03-26T17:19:32.560Z,6.00
2019-03-26T17:21:38.399Z,5.90
2019-03-26T17:23:44.414Z,5.70
2019-03-26T17:25:50.413Z,5.80
2019-03-26T17:27:56.468Z,5.60
2019-03-26T17:30:02.496Z,5.70
2019-03-26T17:32:08.586Z,5.60
2019-03-26T17:34:14.635Z,5.50
2019-03-26T17:36:24.126Z,5.50
2019-03-26T17:38:32.222Z,5.70
2019-03-26T17:40:38.299Z,5.80
2019-03-26T17:42:44.361Z,5.50
2019-03-26T17:44:50.394Z,5.50
2019-03-26T17:47:01.783Z,5.40
2019-03-26T17:49:07.815Z,5.30
2019-03-26T17:51:13.846Z,5.40
2019-03-26T17:53:22.424Z,5.30
2019-03-26T17:55:28.621Z,5.40
2019-03-26T17:57:36.310Z,5.10
2019-03-26T17:59:42.557Z,4.90
2019-03-26T18:01:48.608Z,4.70
2019-03-26T18:03:54.818Z,4.50
2019-03-26T18:06:00.795Z,4.00
2019-03-26T18:08:06.893Z,3.80
2019-03-26T18:10:12.958Z,3.80
2019-03-26T18:12:30.172Z,3.50
2019-03-26T18:14:26.602Z,3.40
2019-03-26T18:16:32.578Z,3.50
2019-03-26T18:18:38.585Z,3.10
2019-03-26T18:20:44.570Z,3.10
2019-03-26T18:22:50.702Z,2.90
2019-03-26T18:24:56.652Z,2.70
2019-03-26T18:27:02.622Z,2.60
2019-03-26T18:29:08.562Z,2.40
2019-03-26T18:31:14.549Z,2.20
2019-03-26T18:33:20.558Z,2.10
2019-03-26T18:35:26.626Z,2.10
2019-03-26T18:37:32.624Z,1.90
2019-03-26T18:39:38.660Z,1.80
2019-03-26T18:41:47.094Z,1.70
2019-03-26T18:43:53.057Z,1.70
2019-03-26T18:45:59.034Z,1.60
2019-03-26T18:48:05.066Z,1.60
2019-03-26T18:50:11.333Z,1.40
2019-03-26T18:52:17.416Z,1.30
2019-03-26T18:54:23.474Z,1.20
2019-03-26T18:56:29.446Z,1.10
2019-03-26T18:58:35.458Z,1.00
2019-03-26T19:00:41.440Z,1.00
2019-03-26T19:02:49.040Z,0.80
2019-03-26T19:04:55.070Z,0.80
2019-03-26T19:07:01.107Z,0.60
2019-03-26T19:09:07.974Z,0.60
2019-03-26T19:11:14.002Z,0.60
2019-03-26T19:13:22.739Z,0.60
2019-03-26T19:15:42.342Z,0.50
2019-03-26T19:18:00.619Z,0.50
2019-03-26T19:20:06.919Z,0.40
2019-03-26T19:22:12.881Z,0.30
2019-03-26T19:24:26.127Z,0.20
2019-03-26T19:26:37.485Z,0.20
2019-03-26T19:28:43.543Z,0.30
2019-03-26T19:30:52.460Z,0.30
2019-03-26T19:32:58.437Z,0.20
2019-03-26T19:35:04.434Z,0.30
2019-03-26T19:37:10.427Z,0.40
2019-03-26T19:39:23.841Z,0.20
2019-03-26T19:41:29.920Z,0.30
2019-03-26T19:43:35.967Z,0.20
2019-03-26T19:45:41.922Z,0.10
2019-03-26T19:47:47.903Z,0.10
2019-03-26T19:49:53.961Z,0.10
2019-03-26T19:52:00.090Z,0.00
2019-03-26T19:54:06.042Z,-0.20
2019-03-26T19:56:12.032Z,-0.20
2019-03-26T19:58:18.018Z,-0.40
2019-03-26T20:00:26.706Z,-0.50
2019-03-26T20:02:31.914Z,-0.40
2019-03-26T20:04:37.900Z,-0.40
2019-03-26T20:06:43.948Z,-0.40
2019-03-26T20:08:49.936Z,-0.50
2019-03-26T20:10:55.958Z,-0.40
2019-03-26T20:13:07.031Z,-0.20
2019-03-26T20:15:13.885Z,-0.40
2019-03-26T20:17:20.094Z,-0.30
2019-03-26T20:19:26.115Z,-0.40
2019-03-26T20:21:32.202Z,-0.60
2019-03-26T20:23:38.262Z,-0.50
2019-03-26T20:25:44.262Z,-0.50
2019-03-26T20:27:50.250Z,-0.70
2019-03-26T20:29:58.785Z,-0.60
2019-03-26T20:32:06.632Z,-0.70
2019-03-26T20:34:12.782Z,-0.80
2019-03-26T20:36:18.906Z,-0.80
2019-03-26T20:38:24.958Z,-0.90
2019-03-26T20:40:31.029Z,-1.00
2019-03-26T20:42:37.209Z,-0.90
2019-03-26T20:44:45.557Z,-0.90
2019-03-26T20:46:51.647Z,-0.80
2019-03-26T20:48:57.650Z,-0.90
2019-03-26T20:51:03.627Z,-1.00
2019-03-26T20:53:12.674Z,-1.00
2019-03-26T20:55:30.081Z,-0.90
2019-03-26T20:57:36.087Z,-0.90
2019-03-26T20:59:42.178Z,-1.10
2019-03-26T21:01:48.207Z,-1.10
2019-03-26T21:03:54.280Z,-1.20
2019-03-26T21:06:00.266Z,-1.10
2019-03-26T21:08:06.350Z,-1.10
2019-03-26T21:10:12.567Z,-1.30
2019-03-26T21:12:20.280Z,-1.30
2019-03-26T21:14:26.324Z,-1.30
2019-03-26T21:16:32.373Z,-1.30
2019-03-26T21:18:38.369Z,-1.30
2019-03-26T21:20:44.475Z,-1.30
2019-03-26T21:22:50.546Z,-1.30
2019-03-26T21:24:56.546Z,-1.30
2019-03-26T21:27:02.650Z,-1.30
2019-03-26T21:29:08.846Z,-1.40
2019-03-26T21:31:14.852Z,-1.40
2019-03-26T21:33:23.307Z,-1.40
2019-03-26T21:35:29.305Z,-1.60
2019-03-26T21:37:35.295Z,-1.50
2019-03-26T21:39:41.278Z,-1.50
2019-03-26T21:41:47.242Z,-1.40
2019-03-26T21:44:03.521Z,-1.40
2019-03-26T21:46:00.963Z,-1.50
2019-03-26T21:48:08.730Z,-1.70
2019-03-26T21:50:14.730Z,-1.80
2019-03-26T21:52:25.896Z,-1.60
2019-03-26T21:54:31.954Z,-1.60
2019-03-26T21:56:38.992Z,-1.80
2019-03-26T21:58:44.974Z,-1.90
2019-03-26T22:00:50.966Z,-1.70
2019-03-26T22:02:56.923Z,-1.60
2019-03-26T22:05:04.166Z,-1.60
2019-03-26T22:07:10.121Z,-1.60
2019-03-26T22:09:16.105Z,-1.70
2019-03-26T22:11:22.418Z,-1.70
2019-03-26T22:13:28.506Z,-1.90
2019-03-26T22:15:34.493Z,-1.90
2019-03-26T22:17:40.533Z,-1.90
2019-03-26T22:19:46.626Z,-1.90
2019-03-26T22:21:52.767Z,-2.00
2019-03-26T22:23:58.871Z,-2.00
2019-03-26T22:26:04.866Z,-2.00
2019-03-26T22:28:10.868Z,-1.90
2019-03-26T22:30:17.378Z,-2.10
2019-03-26T22:32:26.798Z,-2.10
2019-03-26T22:34:36.099Z,-2.10
2019-03-26T22:36:42.047Z,-2.30
2019-03-26T22:38:48.415Z,-2.40
2019-03-26T22:40:54.587Z,-2.40
2019-03-26T22:43:00.821Z,-2.40
2019-03-26T22:45:08.311Z,-2.40
2019-03-26T22:47:14.627Z,-2.30
2019-03-26T22:49:21.603Z,-2.20
2019-03-26T22:51:27.859Z,-2.10
2019-03-26T22:53:36.649Z,-2.10
2019-03-26T22:55:42.658Z,-2.10
2019-03-26T22:57:49.172Z,-2.20
2019-03-26T22:59:55.373Z,-2.20
2019-03-26T23:02:02.227Z,-2.20
2019-03-26T23:04:08.470Z,-2.10
2019-03-26T23:06:14.444Z,-2.00
2019-03-26T23:08:20.638Z,-2.00
2019-03-26T23:10:28.960Z,-2.10
2019-03-26T23:12:37.434Z,-2.20
2019-03-26T23:14:45.445Z,-2.20
2019-03-26T23:16:55.715Z,-2.10
2019-03-26T23:19:01.782Z,-2.20
2019-03-26T23:21:07.987Z,-2.00
2019-03-26T23:23:14.054Z,-1.90
2019-03-26T23:25:20.788Z,-1.80
2019-03-26T23:27:29.108Z,-1.70
2019-03-26T23:29:35.327Z,-1.60
2019-03-26T23:31:41.998Z,-1.50
2019-03-26T23:33:47.955Z,-1.40
2019-03-26T23:35:54.121Z,-1.50
2019-03-26T23:38:01.947Z,-1.30
2019-03-26T23:40:08.527Z,-1.20
2019-03-26T23:42:14.606Z,-1.00
2019-03-26T23:44:25.973Z,-0.90
2019-03-26T23:46:30.632Z,-1.00
2019-03-26T23:48:41.703Z,-1.10
2019-03-26T23:50:48.789Z,-1.20
2019-03-26T23:52:54.923Z,-1.30
2019-03-26T23:55:00.993Z,-1.30
2019-03-26T23:57:09.873Z,-1.20
2019-03-26T23:59:15.966Z,-1.30
